Time;durP1;ratioP1;P1;durP2;ratioP2;P2;SDS_P1;SDS_P2;PMS_P1;PMS_P2;Temp;Humidity;BMP_temperature;BMP_pressure;BME280_temperature;BME280_humidity;BME280_pressure;Samples;Min_cycle;Max_cycle;Signal;HPM_P1;HPM_P2
2023/09/16 00:01:52;;;;;;;20.25;14.98;;;;;;;19.41;68.65;101542.34;5029796;28;20076;-72
2023/09/16 00:04:23;;;;;;;19.42;13.70;;;;;;;19.47;68.45;101544.06;5029332;28;20450;-72
2023/09/16 00:06:50;;;;;;;18.30;13.15;;;;;;;19.48;68.39;101543.19;5029866;28;20041;-72
2023/09/16 00:09:16;;;;;;;21.63;13.82;;;;;;;19.44;68.50;101544.97;5029485;28;20574;-72
2023/09/16 00:11:45;;;;;;;19.10;12.77;;;;;;;19.39;68.74;101544.13;5029486;28;20445;-73
2023/09/16 00:14:21;;;;;;;21.40;14.95;;;;;;;19.37;68.88;101553.88;5029820;28;20044;-72
2023/09/16 00:16:55;;;;;;;19.30;14.93;;;;;;;19.29;69.25;101536.31;5026460;28;20394;-72
2023/09/16 00:19:23;;;;;;;;;;;;;;;19.29;69.43;101533.69;5029488;28;20125;-72
2023/09/16 00:21:49;;;;;;;21.55;14.32;;;;;;;19.31;69.13;101539.84;5029387;28;19917;-72
2023/09/16 00:24:20;;;;;;;20.88;14.93;;;;;;;19.29;69.28;101539.84;5029751;28;20025;-73
2023/09/16 00:26:46;;;;;;;22.10;16.33;;;;;;;19.29;69.28;101539.84;5031824;28;20457;-73
2023/09/16 00:29:11;;;;;;;23.85;16.70;;;;;;;19.27;69.76;101535.50;5032788;28;20041;-73
2023/09/16 00:31:36;;;;;;;23.73;15.93;;;;;;;19.33;69.42;101533.63;5030180;28;20064;-73
2023/09/16 00:34:02;;;;;;;20.48;15.20;;;;;;;19.36;69.28;101532.72;5029974;28;20056;-73
2023/09/16 00:36:28;;;;;;;22.80;16.35;;;;;;;19.35;69.27;101534.50;5028899;28;20033;-73
2023/09/16 00:39:06;;;;;;;25.08;17.30;;;;;;;19.32;69.29;101537.19;5029373;28;20033;-72
2023/09/16 00:41:32;;;;;;;22.63;16.35;;;;;;;19.33;69.34;101532.78;5028743;28;20049;-72
2023/09/16 00:43:58;;;;;;;24.23;16.35;;;;;;;19.34;69.19;101532.72;5029864;28;20034;-72
2023/09/16 00:46:23;;;;;;;23.73;16.38;;;;;;;19.33;69.19;101536.25;5029166;28;20039;-72
2023/09/16 00:48:48;;;;;;;24.73;17.38;;;;;;;19.33;69.15;101535.41;5029362;28;20033;-74
2023/09/16 00:51:14;;;;;;;23.73;16.55;;;;;;;19.31;69.35;101542.47;5032327;28;20034;-74
2023/09/16 00:53:44;;;;;;;27.40;18.38;;;;;;;19.30;69.45;101543.38;5033390;28;20029;-74
2023/09/16 00:56:10;;;;;;;23.08;16.88;;;;;;;19.32;69.66;101537.19;5033660;28;20033;-73
2023/09/16 00:58:42;;;;;;;24.58;17.58;;;;;;;19.40;69.52;101539.72;5033251;28;20117;-71
2023/09/16 01:01:09;;;;;;;27.38;18.33;;;;;;;19.41;69.92;101545.00;5033271;28;20033;-73
2023/09/16 01:03:35;;;;;;;27.67;18.15;;;;;;;19.49;70.13;101541.41;5032981;28;20056;-73
2023/09/16 01:06:03;;;;;;;26.60;17.83;;;;;;;19.60;70.09;101537.72;5033446;28;20049;-74
2023/09/16 01:08:29;;;;;;;24.67;17.48;;;;;;;19.67;70.02;101535.88;5030211;28;20038;-74
2023/09/16 01:10:54;;;;;;;25.38;18.00;;;;;;;19.74;69.78;101534.91;5032863;28;20398;-73
2023/09/16 01:13:19;;;;;;;23.55;16.83;;;;;;;19.81;69.76;101526.00;5032834;28;20030;-73
2023/09/16 01:16:23;;;;;;;25.48;17.77;;;;;;;19.85;69.39;101522.41;5024933;28;20037;-73
2023/09/16 01:18:56;;;;;;;24.58;17.88;;;;;;;19.97;68.79;101519.56;5038953;28;20088;-73
2023/09/16 01:21:25;;;;;;;23.48;17.58;;;;;;;19.91;68.43;101519.66;5032557;28;20438;-73
2023/09/16 01:24:16;;;;;;;23.92;16.60;;;;;;;19.93;68.29;101520.53;5033070;28;20030;-73
2023/09/16 01:26:42;;;;;;;23.35;16.30;;;;;;;19.88;68.04;101524.13;5032598;28;20113;-73
2023/09/16 01:29:07;;;;;;;24.38;16.88;;;;;;;19.81;67.91;101521.56;5032917;28;20116;-73
2023/09/16 01:31:39;;;;;;;25.48;18.08;;;;;;;19.77;67.91;101513.69;5032311;28;20093;-74
2023/09/16 01:34:22;;;;;;;27.77;19.20;;;;;;;19.67;68.31;101520.00;5032864;28;20029;-71
2023/09/16 01:36:52;;;;;;;24.55;16.85;;;;;;;19.64;68.27;101515.63;5032896;28;20033;-73
2023/09/16 01:39:21;;;;;;;25.83;17.67;;;;;;;19.63;67.98;101524.47;5032291;28;20740;-73
2023/09/16 01:41:49;;;;;;;24.88;17.05;;;;;;;19.61;67.87;101513.03;5032477;28;20041;-73
2023/09/16 01:44:14;;;;;;;25.27;18.10;;;;;;;19.59;67.81;101516.59;5032108;28;20044;-74
2023/09/16 01:46:43;;;;;;;24.60;17.48;;;;;;;19.53;68.44;101514.03;5032313;28;20037;-72
2023/09/16 01:49:11;;;;;;;22.95;17.02;;;;;;;19.54;68.15;101521.06;5032524;28;20080;-73
2023/09/16 01:51:39;;;;;;;23.67;16.95;;;;;;;19.52;68.26;101514.94;5031979;28;20087;-73
2023/09/16 01:54:11;;;;;;;26.63;18.40;;;;;;;19.45;68.40;101514.13;5032386;28;20029;-71
2023/09/16 01:56:44;;;;;;;22.45;16.25;;;;;;;19.43;68.96;101516.75;5031677;28;20478;-73
2023/09/16 01:59:10;;;;;;;26.63;18.10;;;;;;;19.40;69.13;101508.84;5032015;28;20076;-73
2023/09/16 02:01:38;;;;;;;24.75;18.30;;;;;;;19.43;69.12;101515.88;5031441;28;20030;-73
2023/09/16 02:04:04;;;;;;;24.85;17.98;;;;;;;19.44;69.25;101518.53;5032254;28;20382;-73
2023/09/16 02:06:29;;;;;;;24.88;17.90;;;;;;;19.44;69.23;101510.59;5031090;28;20044;-74
2023/09/16 02:08:54;;;;;;;24.92;18.67;;;;;;;19.28;69.79;101511.66;5032156;28;20578;-73
2023/09/16 02:11:26;;;;;;;26.25;18.80;;;;;;;19.21;69.78;101503.84;5031412;28;20047;-73
2023/09/16 02:13:51;;;;;;;24.38;18.05;;;;;;;19.25;69.21;101513.47;5030347;28;20494;-74
2023/09/16 02:16:16;;;;;;;23.17;16.42;;;;;;;19.23;69.02;101512.59;5031694;28;20071;-73
2023/09/16 02:18:42;;;;;;;24.23;17.33;;;;;;;19.13;69.30;101522.44;5032111;28;20083;-73
2023/09/16 02:21:07;;;;;;;23.27;16.58;;;;;;;19.08;69.33;101516.31;5031423;28;20064;-74
2023/09/16 02:23:45;;;;;;;23.73;16.88;;;;;;;19.06;69.38;101510.16;5031367;28;20033;-74
2023/09/16 02:26:10;;;;;;;24.30;17.10;;;;;;;19.03;69.74;101516.34;5031884;28;20140;-73
2023/09/16 02:28:41;;;;;;;25.85;18.35;;;;;;;19.03;69.73;101516.34;5031083;28;20574;-73
2023/09/16 02:31:10;;;;;;;24.00;17.13;;;;;;;19.04;69.92;101519.88;5030280;28;20033;-73
2023/09/16 02:33:47;;;;;;;25.40;18.17;;;;;;;19.00;70.08;101516.41;5031346;28;20029;-73
2023/09/16 02:36:12;;;;;;;28.40;19.88;;;;;;;18.96;70.55;101514.69;5031773;28;20036;-73
2023/09/16 02:38:41;;;;;;;27.30;18.58;;;;;;;19.07;70.26;101514.56;5031250;28;20030;-73
2023/09/16 02:41:06;;;;;;;30.13;19.02;;;;;;;19.03;70.68;101512.84;5031470;28;20033;-73
2023/09/16 02:43:31;;;;;;;27.55;19.10;;;;;;;18.95;71.28;101514.72;5030947;28;20041;-73
2023/09/16 02:45:57;;;;;;;24.98;18.27;;;;;;;18.97;71.10;101508.50;5031401;28;20045;-73
2023/09/16 02:48:23;;;;;;;22.80;16.70;;;;;;;19.03;70.62;101513.72;5030555;28;20053;-73
2023/09/16 02:50:54;;;;;;;26.67;18.38;;;;;;;18.99;70.86;101511.13;5031047;28;20404;-73
2023/09/16 02:53:19;;;;;;;28.45;19.38;;;;;;;19.00;71.02;101513.75;5030880;28;20557;-73
2023/09/16 02:55:45;;;;;;;27.13;19.13;;;;;;;19.05;70.99;101509.28;5031288;28;20029;-73
2023/09/16 02:58:10;;;;;;;24.27;17.50;;;;;;;19.09;71.04;101510.13;5031274;28;20442;-74
2023/09/16 03:00:47;;;;;;;25.48;18.13;;;;;;;19.06;71.07;101507.53;5031233;28;20037;-74
2023/09/16 03:03:12;;;;;;;27.42;18.58;;;;;;;19.09;71.24;101509.28;5032125;28;20064;-74
2023/09/16 03:05:46;;;;;;;25.90;18.65;;;;;;;19.16;71.11;101505.63;5031168;28;20491;-74
2023/09/16 03:08:13;;;;;;;24.15;16.65;;;;;;;19.17;71.18;101510.91;5030936;28;20069;-73
2023/09/16 03:10:38;;;;;;;23.63;17.42;;;;;;;19.15;71.00;101511.84;5030251;28;20506;-73
2023/09/16 03:13:06;;;;;;;24.58;17.35;;;;;;;19.11;71.04;101512.75;5030297;28;20121;-73
2023/09/16 03:15:45;;;;;;;26.65;18.20;;;;;;;19.08;71.21;101508.41;5030404;28;20053;-74
2023/09/16 03:18:10;;;;;;;25.00;18.13;;;;;;;19.07;71.18;101497.84;5030830;28;20072;-71
2023/09/16 03:20:41;;;;;;;24.23;16.73;;;;;;;19.11;70.84;101495.13;5030217;28;20030;-71
2023/09/16 03:23:07;;;;;;;23.83;17.27;;;;;;;19.13;70.51;101498.63;5030878;28;20034;-74
2023/09/16 03:25:41;;;;;;;22.48;16.75;;;;;;;19.10;70.40;101501.31;5030584;28;20426;-71
2023/09/16 03:28:09;;;;;;;23.33;17.42;;;;;;;19.08;70.57;101497.81;5030719;28;20033;-74
2023/09/16 03:30:35;;;;;;;22.23;16.92;;;;;;;19.02;70.84;101497.91;5029862;28;20084;-72
2023/09/16 03:33:02;;;;;;;21.75;16.20;;;;;;;19.06;70.80;101489.03;5030663;28;20444;-73
2023/09/16 03:35:36;;;;;;;22.45;16.83;;;;;;;19.06;70.59;101494.31;5030053;28;20037;-73
2023/09/16 03:38:11;;;;;;;22.10;15.65;;;;;;;19.03;70.43;101495.22;5030255;28;20033;-73
2023/09/16 03:40:42;;;;;;;24.02;17.17;;;;;;;18.95;70.85;101491.81;5029887;28;20033;-73
2023/09/16 03:43:14;;;;;;;23.98;16.08;;;;;;;18.99;70.57;101485.56;5028329;28;20143;-73
2023/09/16 03:45:39;;;;;;;23.20;17.08;;;;;;;18.83;71.24;101483.13;5028921;28;20040;-73
2023/09/16 03:48:05;;;;;;;22.05;15.27;;;;;;;18.89;70.82;101486.59;5030251;28;20026;-73
2023/09/16 03:50:30;;;;;;;22.50;16.42;;;;;;;18.91;70.35;101482.13;5029503;28;20414;-73
2023/09/16 03:52:59;;;;;;;21.58;15.20;;;;;;;18.90;70.21;101482.19;5030345;28;20495;-73
2023/09/16 03:55:27;;;;;;;20.38;15.70;;;;;;;18.86;70.20;101481.31;5029593;28;20403;-73
2023/09/16 03:57:52;;;;;;;20.48;15.85;;;;;;;18.79;70.64;101489.31;5030496;28;20026;-73
2023/09/16 04:00:17;;;;;;;22.17;15.73;;;;;;;18.79;70.84;101482.28;5029717;28;20128;-74
2023/09/16 04:02:43;;;;;;;20.92;15.18;;;;;;;18.79;70.87;101481.41;5033050;28;20022;-73
2023/09/16 04:05:11;;;;;;;21.88;15.60;;;;;;;18.72;71.02;101479.72;5033734;28;20441;-73
2023/09/16 04:07:37;;;;;;;20.98;15.52;;;;;;;18.71;70.72;101476.22;5029448;28;20120;-73
2023/09/16 04:10:21;;;;;;;23.30;16.30;;;;;;;18.66;70.76;101479.81;5029646;28;20025;-73
2023/09/16 04:12:46;;;;;;;22.90;15.93;;;;;;;18.62;70.68;101477.16;5030207;28;20116;-73
2023/09/16 04:15:15;;;;;;;23.10;15.50;;;;;;;18.65;70.61;101484.19;5029938;28;20109;-73
2023/09/16 04:17:40;;;;;;;21.65;15.95;;;;;;;18.61;70.44;101477.19;5029411;28;20037;-73
2023/09/16 04:20:06;;;;;;;22.17;16.50;;;;;;;18.49;71.17;101480.78;5027892;28;20040;-73
2023/09/16 04:22:32;;;;;;;22.60;16.08;;;;;;;18.49;71.21;101472.88;5029184;28;20120;-73
2023/09/16 04:25:01;;;;;;;21.50;15.82;;;;;;;18.46;71.41;101477.31;5029592;28;20511;-73
2023/09/16 04:27:26;;;;;;;20.02;14.95;;;;;;;18.44;71.38;101472.03;5028931;28;20097;-73
2023/09/16 04:29:55;;;;;;;23.65;16.55;;;;;;;18.44;71.59;101476.44;5029393;28;20491;-73
2023/09/16 04:32:20;;;;;;;22.35;15.73;;;;;;;18.41;71.33;101472.09;5029114;28;20091;-73
2023/09/16 04:34:45;;;;;;;22.35;16.60;;;;;;;18.37;71.43;101472.97;5029735;28;20063;-73
2023/09/16 04:37:11;;;;;;;22.42;15.57;;;;;;;18.36;71.12;101473.00;5029614;28;20037;-73
2023/09/16 04:39:43;;;;;;;22.70;16.00;;;;;;;18.30;71.54;101476.56;5028727;28;20053;-73
2023/09/16 04:42:09;;;;;;;27.08;17.58;;;;;;;18.25;71.85;101473.09;5029443;28;20402;-73
2023/09/16 04:44:48;;;;;;;23.67;16.92;;;;;;;18.19;72.33;101476.66;5027134;28;20041;-73
2023/09/16 04:47:14;;;;;;;23.40;16.80;;;;;;;18.16;72.67;101457.34;5029605;28;20033;-73
2023/09/16 04:49:45;;;;;;;21.55;15.63;;;;;;;18.25;71.94;101467.81;5029201;28;20038;-73
2023/09/16 04:52:10;;;;;;;21.35;14.70;;;;;;;18.22;71.71;101463.44;5029321;28;20087;-72
2023/09/16 04:54:36;;;;;;;24.83;17.63;;;;;;;18.19;71.78;101465.22;5029042;28;20120;-73
2023/09/16 04:57:02;;;;;;;29.30;22.67;;;;;;;18.19;71.38;101463.47;5029210;28;20045;-73
2023/09/16 04:59:27;;;;;;;44.55;32.83;;;;;;;18.19;71.53;101460.81;5028604;28;20033;-73
2023/09/16 05:01:52;;;;;;;29.13;21.98;;;;;;;18.17;71.39;101467.03;5029000;28;20030;-72
2023/09/16 05:04:18;;;;;;;24.10;17.88;;;;;;;18.11;71.53;101472.34;5028864;28;20025;-73
2023/09/16 05:06:46;;;;;;;23.65;16.63;;;;;;;18.11;71.51;101475.00;5029041;28;20032;-73
2023/09/16 05:09:12;;;;;;;24.50;16.15;;;;;;;18.06;71.98;101477.63;5029068;28;20049;-73
2023/09/16 05:11:49;;;;;;;22.70;15.93;;;;;;;18.02;72.34;101472.41;5028488;28;20030;-73
2023/09/16 05:14:15;;;;;;;23.48;16.75;;;;;;;18.03;72.17;101466.25;5028777;28;20025;-73
2023/09/16 05:16:41;;;;;;;21.67;15.70;;;;;;;18.01;72.40;101468.88;5029062;28;20394;-73
2023/09/16 05:19:06;;;;;;;22.38;16.23;;;;;;;18.00;72.55;101468.88;5029308;28;20048;-73
2023/09/16 05:21:31;;;;;;;21.67;15.27;;;;;;;18.06;71.98;101461.81;5028439;28;20044;-73
2023/09/16 05:24:00;;;;;;;22.83;15.68;;;;;;;18.03;72.15;101471.53;5029515;28;20077;-73
2023/09/16 05:26:31;;;;;;;19.73;14.80;;;;;;;18.06;71.73;101477.63;5028719;28;20029;-73
2023/09/16 05:29:06;;;;;;;22.83;15.73;;;;;;;18.02;72.00;101475.91;5029255;28;20037;-72
2023/09/16 05:31:37;;;;;;;22.33;15.13;;;;;;;18.05;71.93;101477.69;5028605;28;20121;-73
2023/09/16 05:34:11;;;;;;;22.60;15.00;;;;;;;18.01;72.14;101474.16;5030231;28;20037;-73
2023/09/16 05:36:37;;;;;;;22.40;15.38;;;;;;;17.96;72.69;101475.97;5032908;28;20124;-73
2023/09/16 05:39:05;;;;;;;22.27;15.27;;;;;;;18.03;72.42;101475.03;5033036;28;20120;-73
2023/09/16 05:41:30;;;;;;;20.80;14.75;;;;;;;18.10;72.47;101470.59;5031876;28;20084;-73
2023/09/16 05:43:58;;;;;;;21.50;14.57;;;;;;;18.17;72.06;101475.81;5032412;28;20041;-73
2023/09/16 05:46:24;;;;;;;21.30;15.02;;;;;;;18.17;72.51;101477.56;5032043;28;20034;-73
2023/09/16 05:48:49;;;;;;;21.75;15.30;;;;;;;18.18;72.62;101474.91;5032593;28;20103;-73
2023/09/16 05:51:15;;;;;;;22.08;15.48;;;;;;;18.19;73.01;101479.28;5031915;28;20036;-74
2023/09/16 05:53:43;;;;;;;22.88;15.52;;;;;;;18.19;73.13;101479.28;5032472;28;20033;-72
2023/09/16 05:56:09;;;;;;;21.33;15.13;;;;;;;18.24;73.05;101477.50;5032409;28;20120;-73
2023/09/16 05:58:35;;;;;;;19.63;13.75;;;;;;;18.35;72.89;101480.06;5032128;28;20570;-73
2023/09/16 06:01:00;;;;;;;20.35;14.65;;;;;;;18.37;73.06;101475.63;5032060;28;20033;-73
2023/09/16 06:03:28;;;;;;;21.90;14.65;;;;;;;18.45;73.06;101481.72;5031956;28;20128;-73
2023/09/16 06:05:58;;;;;;;22.63;14.45;;;;;;;18.61;72.63;101483.34;5032673;28;20029;-73
2023/09/16 06:08:26;;;;;;;18.77;13.68;;;;;;;18.71;72.71;101485.91;5031585;28;20045;-73
2023/09/16 06:10:52;;;;;;;19.95;14.05;;;;;;;18.74;72.61;101489.38;5032042;28;20033;-73
2023/09/16 06:13:17;;;;;;;21.60;14.07;;;;;;;18.81;72.47;101495.47;5031497;28;20091;-73
2023/09/16 06:15:52;;;;;;;17.95;13.60;;;;;;;18.88;72.28;101500.69;5031854;28;20034;-73
2023/09/16 06:18:17;;;;;;;16.38;12.95;;;;;;;18.95;72.46;101499.72;5031532;28;20037;-73
2023/09/16 06:20:58;;;;;;;19.60;13.93;;;;;;;19.09;71.32;101510.13;5031547;28;20161;-73
2023/09/16 06:23:27;;;;;;;21.27;13.45;;;;;;;19.15;71.37;101510.03;5029694;28;20491;-73
2023/09/16 06:25:52;;;;;;;18.90;13.30;;;;;;;19.26;71.46;101505.53;5031751;28;20028;-73
2023/09/16 06:28:20;;;;;;;18.08;12.90;;;;;;;19.59;71.42;101508.66;5031234;28;20041;-73
2023/09/16 06:30:49;;;;;;;16.00;11.95;;;;;;;20.37;71.91;101516.34;5031934;28;20036;-73
2023/09/16 06:33:20;;;;;;;17.23;12.82;;;;;;;21.37;65.14;101503.84;5032842;28;20057;-73
2023/09/16 06:35:57;;;;;;;17.38;11.82;;;;;;;22.55;60.78;101508.16;5032460;28;20060;-73
2023/09/16 06:38:28;;;;;;;18.67;12.95;;;;;;;23.52;55.45;101499.28;5031749;28;20139;-74
2023/09/16 06:40:54;;;;;;;17.60;12.52;;;;;;;24.40;53.98;101501.78;5032103;28;20112;-73
2023/09/16 06:43:19;;;;;;;17.77;13.07;;;;;;;25.13;49.09;101492.06;5031774;28;20120;-72
2023/09/16 06:45:46;;;;;;;16.30;12.52;;;;;;;25.41;49.91;101497.25;5032066;28;20139;-73
2023/09/16 06:48:14;;;;;;;19.25;13.25;;;;;;;26.40;46.30;101494.19;5029911;28;20041;-72
2023/09/16 06:50:39;;;;;;;20.85;13.45;;;;;;;26.14;46.66;101497.91;5032921;28;20076;-73
2023/09/16 06:53:05;;;;;;;19.83;13.38;;;;;;;25.76;46.57;101502.13;5033219;28;20025;-72
2023/09/16 06:55:33;;;;;;;17.17;13.35;;;;;;;26.68;45.36;101493.84;5035092;28;20038;-73
2023/09/16 06:57:59;;;;;;;17.38;12.68;;;;;;;27.22;42.76;101500.38;5032785;28;20021;-72
2023/09/16 07:00:24;;;;;;;16.42;12.88;;;;;;;27.71;42.75;101491.81;5030287;28;20033;-72
2023/09/16 07:02:57;;;;;;;16.77;12.63;;;;;;;27.81;41.89;101503.81;5031445;28;20052;-72
2023/09/16 07:05:22;;;;;;;18.40;13.80;;;;;;;27.63;42.38;101496.66;5030823;28;20037;-72
2023/09/16 07:07:47;;;;;;;14.40;11.63;;;;;;;28.35;40.93;101502.09;5031070;28;20055;-72
2023/09/16 07:10:20;;;;;;;19.98;13.88;;;;;;;27.88;41.37;101499.03;5031056;28;20037;-73
2023/09/16 07:12:49;;;;;;;;;;;;;;;27.31;43.44;101499.97;5031115;28;20069;-73
2023/09/16 07:15:15;;;;;;;18.52;13.30;;;;;;;28.51;40.56;101497.69;5031611;28;19913;-73
2023/09/16 07:17:40;;;;;;;19.27;14.23;;;;;;;29.41;38.35;101498.28;5030839;28;20029;-73
2023/09/16 07:20:11;;;;;;;22.35;16.13;;;;;;;28.65;39.56;101495.16;5031711;28;20060;-73
2023/09/16 07:22:40;;;;;;;20.50;14.93;;;;;;;27.58;42.89;101496.03;5030877;28;20490;-72
2023/09/16 07:25:08;;;;;;;20.23;13.77;;;;;;;28.95;39.28;101497.19;5031172;28;20049;-72
2023/09/16 07:27:39;;;;;;;20.55;14.50;;;;;;;28.22;41.44;101498.28;5030271;28;20514;-73
2023/09/16 07:30:05;;;;;;;16.98;13.07;;;;;;;28.74;40.22;101491.13;5030190;28;20041;-73
2023/09/16 07:32:31;;;;;;;22.23;15.25;;;;;;;27.88;41.04;101499.03;5030302;28;20120;-72
2023/09/16 07:34:56;;;;;;;19.80;15.05;;;;;;;26.45;45.19;101502.88;5030643;28;20025;-72
2023/09/16 07:37:21;;;;;;;19.95;15.90;;;;;;;26.29;44.61;101509.78;5030007;28;20036;-73
2023/09/16 07:39:49;;;;;;;19.35;15.13;;;;;;;25.78;46.37;101502.06;5030386;28;20038;-72
2023/09/16 07:42:15;;;;;;;22.48;16.02;;;;;;;25.18;48.09;101503.47;5029932;28;20029;-73
2023/09/16 07:44:43;;;;;;;23.52;16.67;;;;;;;24.84;49.98;101508.25;5030545;28;20057;-74
2023/09/16 07:47:14;;;;;;;25.45;16.77;;;;;;;24.73;50.75;101505.97;5030426;28;20033;-75
2023/09/16 07:49:39;;;;;;;24.83;17.27;;;;;;;24.43;51.67;101515.03;5029485;28;20061;-75
2023/09/16 07:52:05;;;;;;;23.80;16.92;;;;;;;24.42;52.51;101506.16;5030412;28;20060;-75
2023/09/16 07:54:33;;;;;;;27.00;16.33;;;;;;;24.53;52.77;101519.97;5029477;28;20517;-75
2023/09/16 07:56:58;;;;;;;24.58;16.52;;;;;;;24.48;52.61;101524.59;5030084;28;20029;-73
2023/09/16 07:59:25;;;;;;;23.42;16.83;;;;;;;24.46;52.61;101528.22;5029453;28;20037;-75
2023/09/16 08:02:00;;;;;;;23.50;16.23;;;;;;;24.20;53.98;101530.00;5030160;28;20079;-74
2023/09/16 08:04:25;;;;;;;23.63;17.40;;;;;;;24.21;52.98;101526.38;5029857;28;20546;-74
2023/09/16 08:06:56;;;;;;;23.02;15.88;;;;;;;24.29;54.14;101528.78;5030406;28;20038;-74
2023/09/16 08:09:21;;;;;;;23.90;17.35;;;;;;;24.49;52.73;101528.13;5029405;28;20494;-75
2023/09/16 08:11:48;;;;;;;25.50;16.00;;;;;;;24.43;53.93;101528.34;5028230;28;20056;-73
2023/09/16 08:14:16;;;;;;;24.55;16.80;;;;;;;24.30;54.10;101522.56;5030220;28;20392;-73
2023/09/16 08:16:42;;;;;;;22.27;15.95;;;;;;;24.45;53.73;101531.84;5029297;28;20057;-73
2023/09/16 08:19:13;;;;;;;22.17;15.35;;;;;;;24.47;53.51;101532.63;5029992;28;20060;-73
2023/09/16 08:21:38;;;;;;;22.73;15.30;;;;;;;24.38;53.40;101530.31;5029235;28;20037;-73
2023/09/16 08:24:04;;;;;;;20.85;15.57;;;;;;;24.38;53.59;101523.19;5029436;28;20026;-73
2023/09/16 08:26:32;;;;;;;23.00;15.73;;;;;;;24.72;53.23;101536.22;5029112;28;20043;-73
2023/09/16 08:28:57;;;;;;;20.85;14.20;;;;;;;24.79;53.83;101528.88;5029308;28;20047;-73
2023/09/16 08:31:28;;;;;;;20.02;15.32;;;;;;;24.78;52.86;101536.00;5028808;28;20045;-74
2023/09/16 08:33:55;;;;;;;23.63;14.77;;;;;;;25.01;52.61;101537.88;5029531;28;20120;-76
2023/09/16 08:36:21;;;;;;;23.05;16.40;;;;;;;25.10;52.65;101534.03;5027759;28;20030;-73
2023/09/16 08:38:47;;;;;;;23.10;14.70;;;;;;;24.95;53.40;101528.31;5028553;28;20452;-73
2023/09/16 08:41:36;;;;;;;18.67;13.95;;;;;;;24.97;53.51;101539.81;5029491;28;20033;-73
2023/09/16 08:44:05;;;;;;;22.15;16.13;;;;;;;24.84;53.62;101537.59;5029401;28;20073;-73
2023/09/16 08:46:33;;;;;;;20.42;14.65;;;;;;;24.97;54.72;101534.47;5028875;28;20088;-73
2023/09/16 08:49:00;;;;;;;21.88;13.82;;;;;;;25.24;53.72;101545.94;5029539;28;20029;-73
2023/09/16 08:51:29;;;;;;;19.45;13.65;;;;;;;25.29;53.76;101551.09;5028616;28;20025;-73
2023/09/16 08:54:00;;;;;;;18.70;14.02;;;;;;;25.51;53.16;101548.50;5029383;28;20036;-73
2023/09/16 08:56:27;;;;;;;18.92;14.13;;;;;;;25.53;52.44;101549.31;5028744;28;20033;-74
2023/09/16 08:58:54;;;;;;;23.00;14.73;;;;;;;25.53;51.93;101552.88;5029291;28;20068;-73
2023/09/16 09:01:23;;;;;;;22.35;14.82;;;;;;;25.48;52.80;101546.84;5028538;28;20125;-73
2023/09/16 09:03:53;;;;;;;23.05;15.30;;;;;;;25.74;52.18;101561.88;5029576;28;20571;-73
2023/09/16 09:06:20;;;;;;;20.55;14.77;;;;;;;25.72;52.95;101558.41;5028607;28;20033;-73
2023/09/16 09:08:46;;;;;;;17.77;13.20;;;;;;;25.89;53.03;101561.28;5026845;28;20048;-73
2023/09/16 09:11:14;;;;;;;21.98;15.73;;;;;;;25.88;52.34;101554.19;5030776;28;20041;-74
2023/09/16 09:13:46;;;;;;;19.95;13.98;;;;;;;26.04;52.10;101562.50;5032745;28;20037;-72
2023/09/16 09:16:15;;;;;;;19.85;14.77;;;;;;;26.11;52.52;101558.63;5031383;28;20041;-75
2023/09/16 09:18:48;;;;;;;20.00;14.05;;;;;;;26.16;51.72;101557.53;5032747;28;20113;-72
2023/09/16 09:21:15;;;;;;;18.65;13.88;;;;;;;26.25;51.06;101554.50;5032978;28;20033;-74
2023/09/16 09:23:43;;;;;;;18.58;13.20;;;;;;;26.36;51.21;101558.53;5032838;28;20029;-74
2023/09/16 09:26:10;;;;;;;17.92;13.23;;;;;;;26.66;50.56;101559.91;5032931;28;20118;-73
2023/09/16 09:28:35;;;;;;;19.83;13.40;;;;;;;26.68;50.56;101563.41;5032243;28;20042;-74
2023/09/16 09:31:00;;;;;;;17.23;12.00;;;;;;;26.97;48.91;101557.69;5032711;28;20047;-73
2023/09/16 09:33:27;;;;;;;17.10;11.85;;;;;;;27.27;48.64;101554.59;5032320;28;20064;-75
2023/09/16 09:36:30;;;;;;;16.92;11.90;;;;;;;27.30;48.05;101554.47;5032968;28;20121;-73
2023/09/16 09:38:57;;;;;;;19.00;13.13;;;;;;;27.26;47.87;101561.78;4990646;28;20038;-74
2023/09/16 09:41:22;;;;;;;19.95;12.38;;;;;;;27.63;47.61;101558.28;5024202;28;20036;-74
2023/09/16 09:43:53;;;;;;;17.48;12.07;;;;;;;27.89;46.53;101559.75;5032579;28;20116;-74
2023/09/16 09:46:21;;;;;;;17.33;11.43;;;;;;;27.72;47.03;101560.53;5032359;28;20049;-74
2023/09/16 09:48:47;;;;;;;15.35;12.35;;;;;;;27.54;46.23;101560.53;5032537;28;20037;-74
2023/09/16 09:51:16;;;;;;;19.40;12.85;;;;;;;27.88;45.83;101559.81;5032492;28;20029;-74
2023/09/16 09:53:48;;;;;;;13.15;10.50;;;;;;;27.73;47.19;101561.41;5032029;28;20159;-74
2023/09/16 09:56:13;;;;;;;14.60;10.80;;;;;;;27.88;45.97;101560.69;5032409;28;20038;-73
2023/09/16 09:58:44;;;;;;;17.20;11.10;;;;;;;28.01;46.21;101563.63;5031757;28;20036;-73
2023/09/16 10:01:15;;;;;;;14.88;10.38;;;;;;;27.66;47.27;101570.69;5032327;28;20041;-73
2023/09/16 10:03:53;;;;;;;12.95;10.13;;;;;;;27.56;45.61;101556.84;5032023;28;20136;-73
2023/09/16 10:06:20;;;;;;;13.32;9.68;;;;;;;27.84;46.42;101562.66;5031702;28;20630;-74
2023/09/16 10:08:51;;;;;;;19.63;11.80;;;;;;;27.74;46.80;101568.53;5032034;28;20434;-74
2023/09/16 10:11:22;;;;;;;13.38;10.05;;;;;;;27.59;47.19;101559.38;5031493;28;20140;-74
2023/09/16 10:13:49;;;;;;;21.73;15.65;;;;;;;27.76;46.67;101569.28;5032689;28;20028;-75
2023/09/16 10:16:15;;;;;;;14.00;10.32;;;;;;;27.62;46.36;101564.59;5032151;28;20060;-75
2023/09/16 10:18:53;;;;;;;11.95;8.93;;;;;;;27.64;46.99;101559.16;5031695;28;20449;-75
2023/09/16 10:21:22;;;;;;;16.80;10.20;;;;;;;27.48;45.67;101566.13;5030978;28;20041;-75
2023/09/16 10:23:53;;;;;;;11.40;8.45;;;;;;;27.25;45.53;101564.50;5032503;28;20553;-75
2023/09/16 10:26:20;;;;;;;13.02;9.35;;;;;;;27.51;44.85;101569.56;5031759;28;20043;-75
2023/09/16 10:28:56;;;;;;;14.25;8.70;;;;;;;27.43;45.22;101561.88;5032467;28;20120;-73
2023/09/16 10:31:23;;;;;;;11.68;8.80;;;;;;;27.53;44.10;101548.94;5031599;28;20029;-74
2023/09/16 10:33:57;;;;;;;11.88;8.75;;;;;;;27.51;46.31;101548.13;5031952;28;20029;-72
2023/09/16 10:36:25;;;;;;;14.25;10.02;;;;;;;27.67;43.53;101546.50;5031225;28;20037;-72
2023/09/16 10:38:51;;;;;;;12.32;9.43;;;;;;;27.37;45.18;101556.78;5031931;28;20092;-72
2023/09/16 10:41:20;;;;;;;13.27;10.20;;;;;;;27.17;46.24;101554.13;5031007;28;20136;-73
2023/09/16 10:43:49;;;;;;;12.85;9.98;;;;;;;27.50;45.34;101550.88;5031525;28;20041;-73
2023/09/16 10:46:16;;;;;;;13.65;9.07;;;;;;;27.30;45.66;101549.97;5031358;28;20368;-73
2023/09/16 10:48:51;;;;;;;12.63;8.93;;;;;;;26.87;45.41;101544.75;5031301;28;20036;-72
2023/09/16 10:51:22;;;;;;;11.00;7.93;;;;;;;27.33;45.24;101548.94;5030824;28;20604;-74
2023/09/16 10:54:00;;;;;;;11.15;7.72;;;;;;;27.51;45.10;101541.91;5031451;28;20114;-72
2023/09/16 10:56:33;;;;;;;12.02;8.60;;;;;;;27.23;45.54;101547.63;5030928;28;20092;-73
2023/09/16 10:59:13;;;;;;;;;;;;;;;27.53;44.81;101540.03;5031617;28;20025;-72
2023/09/16 11:01:47;;;;;;;10.50;7.43;;;;;;;27.45;45.88;101537.69;5030525;28;19921;-72
2023/09/16 11:04:19;;;;;;;12.73;8.68;;;;;;;27.51;45.87;101539.22;5031505;28;20036;-72
2023/09/16 11:06:54;;;;;;;11.00;7.40;;;;;;;27.66;45.51;101539.41;5030689;28;20056;-72
2023/09/16 11:09:21;;;;;;;9.88;7.85;;;;;;;27.69;46.01;101538.41;5031065;28;20044;-73
2023/09/16 11:11:48;;;;;;;11.07;7.40;;;;;;;27.85;45.46;101536.72;5030700;28;20495;-73
2023/09/16 11:14:20;;;;;;;16.20;7.07;;;;;;;27.91;44.97;101532.88;5031379;28;20038;-73
2023/09/16 11:16:50;;;;;;;10.95;8.32;;;;;;;27.82;44.62;101532.38;5031338;28;20045;-75
2023/09/16 11:19:19;;;;;;;10.40;7.47;;;;;;;27.96;44.44;101536.19;5030562;28;20037;-77